Time;durP1;ratioP1;P1;durP2;ratioP2;P2;SDS_P1;SDS_P2;PMS_P1;PMS_P2;Temp;Humidity;BMP_temperature;BMP_pressure;BME280_temperature;BME280_humidity;BME280_pressure;Samples;Min_cycle;Max_cycle;Signal;HPM_P1;HPM_P2
2022/12/28 00:00:07;;;;;;;;;;;;;;;6.03;100.00;101406.03;5029328;28;19921;-77
2022/12/28 00:02:32;;;;;;;;;;;;;;;6.04;100.00;101407.78;5020997;28;20146;-78
2022/12/28 00:04:58;;;;;;;;;;;;;;;6.04;100.00;101409.50;5027335;28;20393;-78
2022/12/28 00:07:24;;;;;;;;;;;;;;;6.05;100.00;101404.28;5028265;28;20081;-78
2022/12/28 00:09:49;;;;;;;;;;;;;;;6.04;100.00;101392.19;5026010;28;19945;-77
2022/12/28 00:12:15;;;;;;;;;;;;;;;6.05;100.00;101391.28;5028871;28;19980;-77
2022/12/28 00:14:41;;;;;;;;;;;;;;;6.07;100.00;101384.31;5029449;28;19972;-77
2022/12/28 00:17:06;;;;;;;;;;;;;;;6.08;100.00;101377.41;5014385;28;19917;-77
2022/12/28 00:19:32;;;;;;;;;;;;;;;6.08;100.00;101375.66;5027210;28;19922;-80
2022/12/28 00:21:57;;;;;;;;;;;;;;;6.09;100.00;101376.50;5026064;28;19928;-80
2022/12/28 00:24:24;;;;;;;;;;;;;;;6.08;100.00;101365.25;5025795;28;19932;-80
2022/12/28 00:26:50;;;;;;;;;;;;;;;6.08;100.00;101360.03;5027585;28;19921;-80
2022/12/28 00:29:16;;;;;;;;;;;;;;;6.08;100.00;101356.59;5024474;28;19925;-80
2022/12/28 00:31:41;;;;;;;;;;;;;;;6.08;100.00;101354.84;5027712;28;20168;-80
2022/12/28 00:34:07;;;;;;;;;;;;;;;6.09;100.00;101353.09;5026263;28;20255;-80
2022/12/28 00:36:32;;;;;;;;;;;;;;;6.11;100.00;101340.91;5025824;28;19909;-77
2022/12/28 00:38:57;;;;;;;;;;;;;;;6.10;100.00;101327.06;5027028;28;19917;-80
2022/12/28 00:41:23;;;;;;;;;;;;;;;6.11;100.00;101325.31;5025757;28;19967;-79
2022/12/28 00:43:49;;;;;;;;;;;;;;;6.12;100.00;101306.25;5032586;28;20141;-79
2022/12/28 00:46:15;;;;;;;;;;;;;;;6.11;100.00;101297.59;5035233;28;19921;-79
2022/12/28 00:48:40;;;;;;;;;;;;;;;6.13;100.00;101294.94;5027956;28;19921;-80
2022/12/28 00:51:07;;;;;;;;;;;;;;;6.13;100.00;101294.94;5034313;28;19917;-80
2022/12/28 00:53:32;;;;;;;;;;;;;;;6.13;100.00;101298.44;5029979;28;20271;-80
2022/12/28 00:56:05;;;;;;;;;;;;;;;6.13;100.00;101293.22;5017864;28;19917;-79
2022/12/28 00:58:31;;;;;;;;;;;;;;;6.14;100.00;101301.88;5017319;28;20011;-80
2022/12/28 01:00:56;;;;;;;;;;;;;;;6.13;100.00;101310.56;5025911;28;19918;-79
2022/12/28 01:03:22;;;;;;;;;;;;;;;6.13;100.00;101305.34;5017278;28;19918;-80
2022/12/28 01:05:47;;;;;;;;;;;;;;;6.14;100.00;101281.06;5018725;28;19967;-80
2022/12/28 01:08:13;;;;;;;;;;;;;;;6.13;100.00;101295.84;5017213;28;19983;-77
2022/12/28 01:10:38;;;;;;;;;;;;;;;6.14;100.00;101284.53;5024955;28;19913;-77
2022/12/28 01:13:04;;;;;;;;;;;;;;;6.14;100.00;101284.53;5037101;28;19976;-77
2022/12/28 01:15:30;;;;;;;;;;;;;;;6.15;100.00;101277.59;5029582;28;19948;-78
2022/12/28 01:17:55;;;;;;;;;;;;;;;6.15;100.00;101264.59;5017305;28;20232;-79
2022/12/28 01:20:21;;;;;;;;;;;;;;;6.16;100.00;101258.50;5019729;28;19968;-80
2022/12/28 01:22:47;;;;;;;;;;;;;;;6.16;100.00;101263.69;5036380;28;20247;-80
2022/12/28 01:25:13;;;;;;;;;;;;;;;6.17;100.00;101257.63;5036192;28;19917;-80
2022/12/28 01:27:38;;;;;;;;;;;;;;;6.17;100.00;101255.03;5016587;28;19925;-80
2022/12/28 01:30:04;;;;;;;;;;;;;;;6.18;100.00;101248.94;5037660;28;19924;-80
2022/12/28 01:32:30;;;;;;;;;;;;;;;6.18;100.00;101251.53;5038190;28;19976;-79
2022/12/28 01:34:55;;;;;;;;;;;;;;;6.19;100.00;101248.06;5036468;28;20233;-80
2022/12/28 01:37:20;;;;;;;;;;;;;;;6.21;100.00;101251.50;5021136;28;19917;-80
2022/12/28 01:39:47;;;;;;;;;;;;;;;6.23;100.00;101248.88;5019942;28;19913;-79
2022/12/28 01:42:17;;;;;;;;;;;;;;;6.22;100.00;101232.41;5024302;28;19922;-80
2022/12/28 01:44:46;;;;;;;;;;;;;;;6.24;100.00;101242.78;5016242;28;19956;-80
2022/12/28 01:47:18;;;;;;;;;;;;;;;6.23;100.00;101231.50;5027121;28;20212;-77
2022/12/28 01:49:56;;;;;;;;;;;;;;;6.25;100.00;101234.94;5036028;28;19943;-80
2022/12/28 01:52:25;;;;;;;;;;;;;;;6.26;100.00;101230.63;5025543;28;19949;-80
2022/12/28 01:55:03;;;;;;;;;;;;;;;6.25;100.00;101216.75;5016253;28;19928;-80
2022/12/28 01:57:31;;;;;;;;;;;;;;;6.27;100.00;101234.91;5026476;28;20404;-78
2022/12/28 02:00:01;;;;;;;;;;;;;;;6.27;100.00;101206.31;5044793;28;20243;-80
2022/12/28 02:02:28;;;;;;;;;;;;;;;6.29;100.00;101222.75;5033193;28;19921;-80
2022/12/28 02:04:54;;;;;;;;;;;;;;;6.29;100.00;101212.34;5035742;28;19952;-79
2022/12/28 02:07:34;;;;;;;;;;;;;;;6.30;100.00;101203.66;5028479;28;19940;-80
2022/12/28 02:10:01;;;;;;;;;;;;;;;6.30;100.00;101214.91;5017560;28;20055;-80
2022/12/28 02:12:27;;;;;;;;;;;;;;;6.30;100.00;101209.72;5022861;28;20270;-77
2022/12/28 02:14:53;;;;;;;;;;;;;;;6.31;100.00;101195.84;5035671;28;19921;-80
2022/12/28 02:17:19;;;;;;;;;;;;;;;6.31;100.00;101190.63;5031776;28;19917;-80
2022/12/28 02:19:45;;;;;;;;;;;;;;;6.33;100.00;101181.06;5016244;28;19951;-77
2022/12/28 02:22:29;;;;;;;;;;;;;;;6.34;100.00;101180.16;5016873;28;20198;-79
2022/12/28 02:25:06;;;;;;;;;;;;;;;6.35;100.00;101183.63;5035302;28;20131;-79
2022/12/28 02:27:32;;;;;;;;;;;;;;;6.36;100.00;101177.53;5026411;28;20284;-80
2022/12/28 02:30:08;;;;;;;;;;;;;;;6.36;100.00;101182.75;5045341;28;19917;-80
2022/12/28 02:32:46;;;;;;;;;;;;;;;6.37;100.00;101174.06;5053219;28;19916;-79
2022/12/28 02:35:24;;;;;;;;;;;;;;;6.39;100.00;101169.69;5037288;28;20094;-80
2022/12/28 02:38:00;;;;;;;;;;;;;;;6.39;100.00;101148.88;5033315;28;19917;-80
2022/12/28 02:40:29;;;;;;;;;;;;;;;6.40;100.00;101160.97;5015821;28;20116;-79
2022/12/28 02:42:54;;;;;;;;;;;;;;;6.41;100.00;101141.03;5017057;28;19929;-80
2022/12/28 02:51:15;;;;;;;;;;;;;;;6.44;100.00;101153.97;5017247;28;19975;-80
2022/12/28 02:53:41;;;;;;;;;;;;;;;6.45;100.00;101140.94;5023717;28;19928;-79
2022/12/28 02:56:19;;;;;;;;;;;;;;;6.46;100.00;101145.28;5039540;28;20094;-80
2022/12/28 02:59:23;;;;;;;;;;;;;;;6.48;100.00;101135.69;5034722;28;20176;-80
2022/12/28 03:01:51;;;;;;;;;;;;;;;6.50;100.00;101156.47;4962822;28;19930;-79
2022/12/28 03:04:27;;;;;;;;;;;;;;;6.53;100.00;101132.97;4981835;28;19988;-80
2022/12/28 03:10:09;;;;;;;;;;;;;;;6.56;100.00;101147.69;5031176;28;19989;-80
2022/12/28 03:12:39;;;;;;;;;;;;;;;6.57;100.00;101158.09;5038805;28;19917;-80
2022/12/28 03:15:14;;;;;;;;;;;;;;;6.60;100.00;101134.59;5029475;28;19980;-80
2022/12/28 03:31:31;;;;;;;;;;;;;;;6.68;100.00;101111.88;5021747;28;19968;-80
2022/12/28 03:34:05;;;;;;;;;;;;;;;6.69;100.00;101124.03;5019072;28;19921;-80
2022/12/28 03:37:09;;;;;;;;;;;;;;;6.71;100.00;101118.75;5035978;28;19943;-77
2022/12/28 03:39:43;;;;;;;;;;;;;;;6.72;100.00;101121.34;4977314;28;19929;-77
2022/12/28 03:45:26;;;;;;;;;;;;;;;6.76;100.00;101113.47;5011286;28;19956;-80
2022/12/28 03:47:53;;;;;;;;;;;;;;;6.77;100.00;101126.47;5018513;28;20288;-80
2022/12/28 03:50:20;;;;;;;;;;;;;;;6.78;100.00;101101.28;5038646;28;20264;-80
2022/12/28 03:52:45;;;;;;;;;;;;;;;6.79;100.00;101108.22;5038015;28;19951;-78
2022/12/28 03:55:13;;;;;;;;;;;;;;;6.81;100.00;101107.28;5037715;28;19914;-80
2022/12/28 03:57:39;;;;;;;;;;;;;;;6.82;100.00;101110.72;5037971;28;19917;-80
2022/12/28 04:00:05;;;;;;;;;;;;;;;6.82;100.00;101101.19;5044312;28;20183;-80
2022/12/28 04:02:32;;;;;;;;;;;;;;;6.84;100.00;101114.16;5058659;28;19942;-78
2022/12/28 04:04:57;;;;;;;;;;;;;;;6.85;100.00;101111.53;5044576;28;20393;-80
2022/12/28 04:07:24;;;;;;;;;;;;;;;6.86;100.00;101112.41;5038092;28;19999;-80
2022/12/28 04:09:51;;;;;;;;;;;;;;;6.88;100.00;101102.81;5010144;28;19935;-80
2022/12/28 04:12:16;;;;;;;;;;;;;;;6.90;100.00;101106.25;5018748;28;19983;-80
2022/12/28 04:14:42;;;;;;;;;;;;;;;6.91;100.00;101107.94;5027563;28;19921;-80
2022/12/28 04:17:07;;;;;;;;;;;;;;;6.91;100.00;101097.50;5038408;28;20132;-80
2022/12/28 04:19:33;;;;;;;;;;;;;;;6.91;100.00;101082.78;5032620;28;19921;-80
2022/12/28 04:21:59;;;;;;;;;;;;;;;6.92;100.00;101087.06;5018428;28;19955;-80
2022/12/28 04:24:24;;;;;;;;;;;;;;;6.94;100.00;101081.84;5020347;28;19979;-81
2022/12/28 04:26:50;;;;;;;;;;;;;;;6.96;100.00;101084.41;5037591;28;20201;-80
2022/12/28 04:29:16;;;;;;;;;;;;;;;6.96;100.00;101092.22;5039897;28;19917;-80
2022/12/28 04:31:42;;;;;;;;;;;;;;;6.97;100.00;101089.59;5037315;28;20024;-80
2022/12/28 04:34:07;;;;;;;;;;;;;;;6.98;100.00;101082.63;5033415;28;19924;-80
2022/12/28 04:36:33;;;;;;;;;;;;;;;7.00;100.00;101091.25;5035283;28;19921;-80
2022/12/28 04:38:59;;;;;;;;;;;;;;;7.00;100.00;101081.69;5037919;28;20228;-80
2022/12/28 04:41:24;;;;;;;;;;;;;;;7.03;100.00;101067.75;5022210;28;20000;-78
2022/12/28 04:43:52;;;;;;;;;;;;;;;7.02;100.00;101079.94;5017911;28;19932;-80
2022/12/28 04:46:19;;;;;;;;;;;;;;;7.03;100.00;101073.81;5017893;28;20195;-80
2022/12/28 04:48:44;;;;;;;;;;;;;;;7.04;100.00;101066.84;5017624;28;19921;-80
2022/12/28 04:51:15;;;;;;;;;;;;;;;7.04;100.00;101059.91;5028454;28;20143;-80
2022/12/28 04:53:40;;;;;;;;;;;;;;;7.06;100.00;101065.94;5037109;28;19924;-80
2022/12/28 04:56:07;;;;;;;;;;;;;;;7.07;100.00;101066.78;5031256;28;20132;-80
2022/12/28 04:58:32;;;;;;;;;;;;;;;7.08;100.00;101056.34;5037000;28;19916;-79
2022/12/28 05:01:17;;;;;;;;;;;;;;;7.09;100.00;101065.91;5048050;28;19925;-80
2022/12/28 05:03:45;;;;;;;;;;;;;;;7.11;100.00;101048.47;5037183;28;19909;-79
2022/12/28 05:06:12;;;;;;;;;;;;;;;7.14;100.00;101054.50;5030833;28;19964;-80
2022/12/28 05:08:37;;;;;;;;;;;;;;;7.14;100.00;101057.97;5016681;28;19914;-80
2022/12/28 05:11:04;;;;;;;;;;;;;;;7.16;100.00;101060.53;5021476;28;20094;-80
2022/12/28 05:13:30;;;;;;;;;;;;;;;7.16;100.00;101045.75;5036874;28;19917;-80
2022/12/28 05:15:59;;;;;;;;;;;;;;;7.19;100.00;101060.47;5034521;28;19917;-80
2022/12/28 05:18:25;;;;;;;;;;;;;;;7.18;100.00;101048.31;5017144;28;19925;-80
2022/12/28 05:20:57;;;;;;;;;;;;;;;7.19;100.00;101060.47;5016753;28;20247;-80
2022/12/28 05:23:22;;;;;;;;;;;;;;;7.19;100.00;101045.69;5033359;28;20128;-80
2022/12/28 05:25:51;;;;;;;;;;;;;;;7.20;100.00;101057.81;5016467;28;19917;-80
2022/12/28 05:28:17;;;;;;;;;;;;;;;7.21;100.00;101043.06;5034764;28;19970;-80
2022/12/28 05:30:42;;;;;;;;;;;;;;;7.23;100.00;101059.50;5047905;28;19944;-80
2022/12/28 05:33:08;;;;;;;;;;;;;;;7.23;100.00;101049.94;5032583;28;19921;-80
2022/12/28 05:35:34;;;;;;;;;;;;;;;7.24;100.00;101041.22;5036041;28;19917;-80
2022/12/28 05:37:59;;;;;;;;;;;;;;;7.26;100.00;101046.41;5035930;28;20118;-80
2022/12/28 05:40:24;;;;;;;;;;;;;;;7.26;100.00;101021.22;5036307;28;19913;-80
2022/12/28 05:42:50;;;;;;;;;;;;;;;7.29;100.00;101048.91;5026537;28;19944;-80
2022/12/28 05:45:15;;;;;;;;;;;;;;;7.29;100.00;101042.00;5016441;28;19932;-80
2022/12/28 05:47:41;;;;;;;;;;;;;;;7.30;100.00;101038.47;5023195;28;19927;-80
2022/12/28 05:50:07;;;;;;;;;;;;;;;7.32;100.00;101033.22;5036378;28;19917;-80
2022/12/28 05:52:34;;;;;;;;;;;;;;;7.33;100.00;101019.31;5027155;28;19927;-80
2022/12/28 05:54:59;;;;;;;;;;;;;;;7.35;100.00;101025.34;5036491;28;19915;-80
2022/12/28 05:57:26;;;;;;;;;;;;;;;7.37;100.00;101014.84;5034356;28;20204;-80
2022/12/28 05:59:51;;;;;;;;;;;;;;;7.38;100.00;101019.19;5024756;28;20219;-80
2022/12/28 06:02:16;;;;;;;;;;;;;;;7.39;100.00;101000.06;5035870;28;19921;-80
2022/12/28 06:04:42;;;;;;;;;;;;;;;7.40;100.00;101010.44;5016402;28;20256;-80
2022/12/28 06:07:08;;;;;;;;;;;;;;;7.42;100.00;101020.81;5016546;28;19909;-80
2022/12/28 06:09:33;;;;;;;;;;;;;;;7.43;100.00;101004.31;5033764;28;19929;-80
2022/12/28 06:11:59;;;;;;;;;;;;;;;7.45;100.00;101010.34;5035826;28;19925;-80
2022/12/28 06:14:25;;;;;;;;;;;;;;;7.45;100.00;101005.97;5020857;28;20183;-80
2022/12/28 06:16:51;;;;;;;;;;;;;;;7.46;100.00;101012.91;5017438;28;19996;-80
2022/12/28 06:19:17;;;;;;;;;;;;;;;7.47;100.00;101004.19;5028417;28;19921;-80
2022/12/28 06:21:42;;;;;;;;;;;;;;;7.47;100.00;101018.97;5035640;28;20248;-80
2022/12/28 06:24:09;;;;;;;;;;;;;;;7.48;100.00;101018.09;5025889;28;20235;-80
2022/12/28 06:26:35;;;;;;;;;;;;;;;7.48;100.00;101008.50;5015876;28;20313;-80
2022/12/28 06:29:03;;;;;;;;;;;;;;;7.49;100.00;100988.50;5029548;28;19921;-80
2022/12/28 06:31:33;;;;;;;;;;;;;;;7.49;100.00;101023.25;5039939;28;19943;-80
2022/12/28 06:33:59;;;;;;;;;;;;;;;7.52;100.00;101003.22;5033085;28;19928;-80
2022/12/28 06:36:29;;;;;;;;;;;;;;;7.53;100.00;101002.31;5020086;28;20202;-80
2022/12/28 06:38:56;;;;;;;;;;;;;;;7.54;100.00;100998.81;5024833;28;19979;-80
2022/12/28 06:41:21;;;;;;;;;;;;;;;7.56;100.00;101010.06;5039450;28;19999;-80
2022/12/28 06:43:48;;;;;;;;;;;;;;;7.56;100.00;101018.72;5036612;28;20260;-80
2022/12/28 06:46:13;;;;;;;;;;;;;;;7.56;100.00;101005.69;5020174;28;19917;-80
2022/12/28 06:48:39;;;;;;;;;;;;;;;7.57;100.00;101015.25;5019862;28;19925;-80
2022/12/28 06:51:06;;;;;;;;;;;;;;;7.59;100.00;100996.97;5039798;28;19909;-80
2022/12/28 06:53:36;;;;;;;;;;;;;;;7.58;100.00;100982.22;5031071;28;20194;-80
2022/12/28 06:56:04;;;;;;;;;;;;;;;7.60;100.00;100983.00;5038285;28;19921;-80
2022/12/28 06:58:30;;;;;;;;;;;;;;;7.61;100.00;100980.38;5040701;28;19924;-80
2022/12/28 07:00:56;;;;;;;;;;;;;;;7.61;100.00;100993.41;5022803;28;19925;-80
2022/12/28 07:03:23;;;;;;;;;;;;;;;7.62;100.00;100987.31;5019534;28;19913;-80
2022/12/28 07:05:49;;;;;;;;;;;;;;;7.63;100.00;100989.00;5033326;28;19967;-80
2022/12/28 07:08:14;;;;;;;;;;;;;;;7.63;100.00;100985.56;5039326;28;19921;-80
2022/12/28 07:10:40;;;;;;;;;;;;;;;7.65;100.00;100986.38;5027605;28;20179;-80
2022/12/28 07:13:06;;;;;;;;;;;;;;;7.65;100.00;100981.16;5023378;28;20112;-80
2022/12/28 07:15:33;;;;;;;;;;;;;;;7.66;100.00;100990.69;5030217;28;19921;-80
2022/12/28 07:17:59;;;;;;;;;;;;;;;7.67;100.00;100984.56;5019586;28;20220;-80
2022/12/28 07:20:25;;;;;;;;;;;;;;;7.68;100.00;100986.28;5026203;28;20031;-80
2022/12/28 07:22:50;;;;;;;;;;;;;;;7.68;100.00;100987.13;5038821;28;20208;-80
2022/12/28 07:25:16;;;;;;;;;;;;;;;7.69;100.00;100988.00;5035322;28;19918;-80
2022/12/28 07:27:42;;;;;;;;;;;;;;;7.71;100.00;100990.56;5019013;28;19944;-80
2022/12/28 07:30:07;;;;;;;;;;;;;;;7.71;100.00;100987.94;5021173;28;20121;-80
2022/12/28 07:32:36;;;;;;;;;;;;;;;7.72;100.00;100985.31;5038283;28;19909;-80
2022/12/28 07:35:02;;;;;;;;;;;;;;;7.73;100.00;100994.84;5039127;28;19913;-80
2022/12/28 07:37:28;;;;;;;;;;;;;;;7.75;100.00;100994.78;5018944;28;19909;-80
2022/12/28 07:39:53;;;;;;;;;;;;;;;7.75;100.00;100987.84;5018653;28;20227;-80
2022/12/28 07:42:19;;;;;;;;;;;;;;;7.75;100.00;100987.84;5036126;28;20108;-80
2022/12/28 07:44:46;;;;;;;;;;;;;;;7.77;100.00;100990.41;5038725;28;20267;-80
2022/12/28 07:47:12;;;;;;;;;;;;;;;7.77;100.00;100986.06;5039001;28;20255;-80
2022/12/28 07:49:37;;;;;;;;;;;;;;;7.77;100.00;100993.03;5038070;28;19913;-80
2022/12/28 07:52:03;;;;;;;;;;;;;;;7.79;100.00;100991.22;5031164;28;19959;-80
2022/12/28 07:54:28;;;;;;;;;;;;;;;7.79;100.00;100986.84;5027044;28;19917;-80
2022/12/28 07:56:54;;;;;;;;;;;;;;;7.79;100.00;100979.03;5028916;28;19913;-80
2022/12/28 07:59:19;;;;;;;;;;;;;;;7.81;100.00;100986.81;5028676;28;19935;-80
2022/12/28 08:01:45;;;;;;;;;;;;;;;7.81;100.00;100992.88;5026382;28;19925;-80
2022/12/28 08:04:12;;;;;;;;;;;;;;;7.82;100.00;100972.88;5018488;28;19925;-80
2022/12/28 08:06:39;;;;;;;;;;;;;;;7.83;100.00;100985.03;5018175;28;19960;-80
2022/12/28 08:09:06;;;;;;;;;;;;;;;7.83;100.00;100979.81;5018663;28;19925;-80
2022/12/28 08:11:32;;;;;;;;;;;;;;;7.84;100.00;101002.38;5021047;28;19928;-80
2022/12/28 08:13:58;;;;;;;;;;;;;;;7.84;100.00;100989.31;5038007;28;19921;-80
2022/12/28 08:16:25;;;;;;;;;;;;;;;7.84;100.00;101003.25;5037308;28;20204;-80
2022/12/28 08:18:51;;;;;;;;;;;;;;;7.85;100.00;100985.84;5018302;28;20040;-80
2022/12/28 08:21:19;;;;;;;;;;;;;;;7.84;100.00;100982.38;5019394;28;19968;-80
2022/12/28 08:23:45;;;;;;;;;;;;;;;7.85;100.00;100991.91;5035695;28;19920;-80
2022/12/28 08:26:14;;;;;;;;;;;;;;;7.86;100.00;100982.34;5037994;28;19996;-80
2022/12/28 08:28:41;;;;;;;;;;;;;;;7.87;100.00;100976.22;5036721;28;20201;-80
2022/12/28 08:31:11;;;;;;;;;;;;;;;7.86;100.00;100983.19;5020399;28;20201;-80
2022/12/28 08:33:37;;;;;;;;;;;;;;;7.87;100.00;100984.03;5031800;28;19927;-80
2022/12/28 08:36:03;;;;;;;;;;;;;;;7.86;100.00;100975.38;5037847;28;19944;-80
2022/12/28 08:38:29;;;;;;;;;;;;;;;7.87;100.00;100977.06;5025284;28;20200;-79
2022/12/28 08:40:56;;;;;;;;;;;;;;;7.89;100.00;100984.84;5017573;28;19914;-80
2022/12/28 08:43:21;;;;;;;;;;;;;;;7.89;100.00;100966.59;5027842;28;19956;-80
2022/12/28 08:45:57;;;;;;;;;;;;;;;7.89;100.00;100979.63;5037233;28;19916;-80
2022/12/28 08:48:23;;;;;;;;;;;;;;;7.90;100.00;100972.69;5036023;28;20200;-80
2022/12/28 08:50:48;;;;;;;;;;;;;;;7.90;100.00;100981.34;5036258;28;19921;-80
2022/12/28 08:53:14;;;;;;;;;;;;;;;7.91;100.00;100970.00;5030633;28;19921;-80
2022/12/28 08:55:39;;;;;;;;;;;;;;;7.94;100.00;100971.69;5017424;28;19918;-80
2022/12/28 08:58:04;;;;;;;;;;;;;;;7.93;100.00;100960.41;5021562;28;19913;-80
2022/12/28 09:00:30;;;;;;;;;;;;;;;7.94;100.00;100975.16;5037144;28;19913;-80
2022/12/28 09:02:59;;;;;;;;;;;;;;;7.95;100.00;100986.44;5035070;28;20015;-80
2022/12/28 09:05:24;;;;;;;;;;;;;;;7.95;100.00;100979.47;5017550;28;19924;-80
2022/12/28 09:07:51;;;;;;;;;;;;;;;7.96;100.00;100962.06;5018421;28;20189;-80
2022/12/28 09:10:16;;;;;;;;;;;;;;;7.96;100.00;100970.75;5037081;28;19913;-80
2022/12/28 09:12:42;;;;;;;;;;;;;;;7.96;100.00;100965.53;5037008;28;19915;-80
2022/12/28 09:15:07;;;;;;;;;;;;;;;7.96;100.00;100975.97;5020457;28;19921;-80
2022/12/28 09:17:33;;;;;;;;;;;;;;;7.97;100.00;100969.00;5002220;28;19917;-80
2022/12/28 09:19:58;;;;;;;;;;;;;;;7.98;100.00;100968.09;5032786;28;19920;-80
2022/12/28 09:22:24;;;;;;;;;;;;;;;7.98;100.00;100968.09;5036670;28;19956;-80
2022/12/28 09:24:49;;;;;;;;;;;;;;;7.98;100.00;100961.13;5016361;28;20212;-80
2022/12/28 09:27:15;;;;;;;;;;;;;;;7.99;100.00;100960.25;5017847;28;20200;-80
2022/12/28 09:29:41;;;;;;;;;;;;;;;7.99;100.00;100964.59;5024224;28;19995;-80
2022/12/28 09:32:06;;;;;;;;;;;;;;;7.99;100.00;100955.03;5037243;28;19917;-80
2022/12/28 09:34:31;;;;;;;;;;;;;;;8.01;100.00;100965.41;5029315;28;19913;-80
2022/12/28 09:36:57;;;;;;;;;;;;;;;8.01;100.00;100968.03;5017288;28;19921;-80
2022/12/28 09:39:23;;;;;;;;;;;;;;;8.02;100.00;100970.59;5026492;28;19924;-80
2022/12/28 09:42:01;;;;;;;;;;;;;;;8.02;100.00;100961.88;5037752;28;19925;-80
2022/12/28 09:44:29;;;;;;;;;;;;;;;8.03;100.00;100966.22;5032460;28;19921;-80
2022/12/28 09:47:11;;;;;;;;;;;;;;;8.03;100.00;100958.41;5016523;28;19909;-80
2022/12/28 09:49:51;;;;;;;;;;;;;;;8.03;100.00;100967.06;5020665;28;19967;-80
2022/12/28 09:52:24;;;;;;;;;;;;;;;8.03;100.00;100969.69;5016910;28;19951;-80
2022/12/28 09:54:49;;;;;;;;;;;;;;;8.04;100.00;100962.69;5020633;28;19928;-80
2022/12/28 09:57:16;;;;;;;;;;;;;;;8.04;100.00;100965.31;5036399;28;19909;-80
2022/12/28 09:59:43;;;;;;;;;;;;;;;8.04;100.00;100960.09;5034803;28;19924;-80
2022/12/28 10:02:22;;;;;;;;;;;;;;;8.04;100.00;100958.34;5025816;28;20038;-80
2022/12/28 10:04:49;;;;;;;;;;;;;;;8.04;100.00;100955.75;5035325;28;19917;-80
2022/12/28 10:07:14;;;;;;;;;;;;;;;8.04;100.00;100955.75;5031580;28;19913;-80
2022/12/28 10:09:40;;;;;;;;;;;;;;;8.05;100.00;100956.59;5026386;28;19951;-80
2022/12/28 10:12:11;;;;;;;;;;;;;;;8.05;100.00;100961.81;5026238;28;20106;-80
2022/12/28 10:14:37;;;;;;;;;;;;;;;8.05;100.00;100959.22;5026743;28;19928;-80
2022/12/28 10:17:05;;;;;;;;;;;;;;;8.05;100.00;100960.06;5028076;28;19920;-80
2022/12/28 10:19:31;;;;;;;;;;;;;;;8.06;100.00;100951.34;5015744;28;20023;-80
2022/12/28 10:22:04;;;;;;;;;;;;;;;8.06;100.00;100953.94;5028184;28;19944;-81
2022/12/28 10:24:30;;;;;;;;;;;;;;;8.06;100.00;100946.13;5030120;28;19932;-79
2022/12/28 10:26:57;;;;;;;;;;;;;;;8.06;100.00;100953.09;5019816;28;20046;-79
2022/12/28 10:29:22;;;;;;;;;;;;;;;8.06;100.00;100946.13;5038422;28;19980;-80
2022/12/28 10:31:57;;;;;;;;;;;;;;;8.07;100.00;100949.56;5043190;28;19951;-80
2022/12/28 10:34:23;;;;;;;;;;;;;;;8.07;100.00;100952.19;5036658;28;19988;-80
2022/12/28 10:36:50;;;;;;;;;;;;;;;8.05;100.00;100941.78;5028935;28;19993;-80
2022/12/28 10:39:26;;;;;;;;;;;;;;;8.05;100.00;100947.00;5026111;28;19944;-80
2022/12/28 10:41:53;;;;;;;;;;;;;;;8.05;100.00;100944.41;5028084;28;20169;-80
2022/12/28 10:44:30;;;;;;;;;;;;;;;8.05;100.00;100964.44;5031623;28;19940;-80
2022/12/28 10:46:55;;;;;;;;;;;;;;;8.05;100.00;100940.94;5029148;28;19921;-80
2022/12/28 10:49:21;;;;;;;;;;;;;;;8.05;100.00;100930.50;5030941;28;19951;-80
2022/12/28 10:51:59;;;;;;;;;;;;;;;8.04;100.00;100934.00;5029714;28;19924;-80
2022/12/28 10:54:25;;;;;;;;;;;;;;;8.05;100.00;100951.38;5030748;28;20144;-80
2022/12/28 10:56:50;;;;;;;;;;;;;;;8.05;100.00;100926.16;5037904;28;19984;-80
2022/12/28 10:59:26;;;;;;;;;;;;;;;8.04;100.00;100921.84;5032301;28;19921;-79
2022/12/28 11:01:52;;;;;;;;;;;;;;;8.03;100.00;100914.91;5027403;28;19925;-80
2022/12/28 11:04:18;;;;;;;;;;;;;;;8.04;100.00;100924.44;5018234;28;19964;-80
2022/12/28 11:06:50;;;;;;;;;;;;;;;8.05;100.00;100920.09;5022536;28;20182;-79
2022/12/28 11:09:16;;;;;;;;;;;;;;;8.05;100.00;100912.25;5028176;28;20104;-79
2022/12/28 11:11:42;;;;;;;;;;;;;;;8.04;100.00;100914.03;5029626;28;19948;-80
2022/12/28 11:14:13;;;;;;;;;;;;;;;8.05;100.00;100905.28;5043749;28;19913;-79
2022/12/28 11:16:39;;;;;;;;;;;;;;;8.05;100.00;100894.84;5027564;28;19933;-79
2022/12/28 11:19:04;;;;;;;;;;;;;;;8.04;100.00;100894.88;5035112;28;19921;-79
2022/12/28 11:21:30;;;;;;;;;;;;;;;8.05;100.00;100888.78;5030077;28;20514;-79
2022/12/28 11:23:55;;;;;;;;;;;;;;;8.04;100.00;100889.66;5037292;28;19920;-80
2022/12/28 11:26:21;;;;;;;;;;;;;;;8.04;100.00;100885.31;5029139;28;20126;-79
2022/12/28 11:28:50;;;;;;;;;;;;;;;8.05;100.00;100899.22;5038701;28;19992;-79
2022/12/28 11:31:29;;;;;;;;;;;;;;;8.04;100.00;100889.66;5039803;28;19952;-80
2022/12/28 11:34:02;;;;;;;;;;;;;;;8.02;100.00;100881.91;5050366;28;19912;-79
2022/12/28 11:36:29;;;;;;;;;;;;;;;8.02;100.00;100878.44;5040262;28;19928;-80
2022/12/28 11:38:55;;;;;;;;;;;;;;;8.03;100.00;100880.16;5023807;28;19928;-80
2022/12/28 11:41:23;;;;;;;;;;;;;;;8.04;100.00;100889.66;5030904;28;19953;-80
2022/12/28 11:44:04;;;;;;;;;;;;;;;8.02;100.00;100881.91;5028566;28;20238;-80
2022/12/28 11:46:30;;;;;;;;;;;;;;;8.01;100.00;100877.59;5030288;28;19984;-80
2022/12/28 11:48:56;;;;;;;;;;;;;;;8.02;100.00;100873.22;5032390;28;20109;-80
2022/12/28 11:51:27;;;;;;;;;;;;;;;8.02;100.00;100873.22;5035655;28;20001;-79
2022/12/28 11:53:57;;;;;;;;;;;;;;;8.01;100.00;100868.91;5037691;28;19921;-80
2022/12/28 11:56:46;;;;;;;;;;;;;;;8.02;100.00;100860.16;5041764;28;19909;-80
2022/12/28 11:59:17;;;;;;;;;;;;;;;8.02;100.00;100870.59;5025138;28;19921;-80
2022/12/28 12:01:43;;;;;;;;;;;;;;;8.01;100.00;100856.72;5035894;28;19925;-80
2022/12/28 12:04:16;;;;;;;;;;;;;;;8.01;100.00;100843.69;5035464;28;19945;-80
2022/12/28 12:06:45;;;;;;;;;;;;;;;8.01;100.00;100845.44;5039403;28;19924;-80
2022/12/28 12:09:20;;;;;;;;;;;;;;;8.01;100.00;100843.69;5029757;28;19988;-80
2022/12/28 12:11:46;;;;;;;;;;;;;;;8.02;100.00;100828.88;5042307;28;19975;-80
2022/12/28 12:14:12;;;;;;;;;;;;;;;8.02;100.00;100819.31;5032144;28;19932;-80
2022/12/28 12:16:47;;;;;;;;;;;;;;;8.03;100.00;100820.16;5020387;28;19921;-80
2022/12/28 12:19:19;;;;;;;;;;;;;;;8.03;100.00;100813.19;5037347;28;19980;-80
2022/12/28 12:21:50;;;;;;;;;;;;;;;8.04;100.00;100821.84;5022316;28;20227;-80
2022/12/28 12:24:19;;;;;;;;;;;;;;;8.04;100.00;100812.28;5006674;28;19973;-80
2022/12/28 12:26:50;;;;;;;;;;;;;;;8.06;100.00;100812.25;5022864;28;19933;-80
2022/12/28 12:29:28;;;;;;;;;;;;;;;8.04;100.00;100801.88;5036769;28;19924;-80
2022/12/28 12:32:01;;;;;;;;;;;;;;;8.05;100.00;100797.50;5021570;28;19917;-80
2022/12/28 12:34:29;;;;;;;;;;;;;;;8.04;100.00;100785.34;5028696;28;19928;-80
2022/12/28 12:37:01;;;;;;;;;;;;;;;8.03;100.00;100787.09;5034716;28;19955;-80
2022/12/28 12:39:35;;;;;;;;;;;;;;;8.05;100.00;100782.69;5048030;28;19921;-80
2022/12/28 12:42:01;;;;;;;;;;;;;;;8.05;100.00;100777.47;5027643;28;20201;-80
2022/12/28 12:44:33;;;;;;;;;;;;;;;8.06;100.00;100770.53;5025039;28;19917;-80
2022/12/28 12:47:10;;;;;;;;;;;;;;;8.06;100.00;100747.06;5034957;28;19932;-80
2022/12/28 12:49:55;;;;;;;;;;;;;;;8.07;100.00;100765.22;5023574;28;20196;-80
2022/12/28 12:52:37;;;;;;;;;;;;;;;8.07;100.00;100744.38;5027776;28;19921;-80
2022/12/28 12:55:11;;;;;;;;;;;;;;;8.08;100.00;100743.47;5038319;28;19925;-80
2022/12/28 12:57:57;;;;;;;;;;;;;;;8.09;100.00;100733.88;5038459;28;19916;-80
2022/12/28 13:00:25;;;;;;;;;;;;;;;8.09;100.00;100731.28;5037177;28;19921;-80
2022/12/28 13:02:51;;;;;;;;;;;;;;;8.09;100.00;100723.47;5031535;28;20181;-80
2022/12/28 13:05:18;;;;;;;;;;;;;;;8.09;100.00;100715.63;5034827;28;19922;-80